Time;durP1;ratioP1;P1;durP2;ratioP2;P2;SDS_P1;SDS_P2;PMS_P1;PMS_P2;Temp;Humidity;BMP_temperature;BMP_pressure;BME280_temperature;BME280_humidity;BME280_pressure;Samples;Min_cycle;Max_cycle;Signal;HPM_P1;HPM_P2
2021/06/06 00:00:31;;;;;;;1.48;1.23;;;15.70;99.90;;;;;;5053099;28;20220;-40
2021/06/06 00:03:01;;;;;;;1.60;1.50;;;15.70;99.90;;;;;;5053325;28;20218;-41
2021/06/06 00:05:33;;;;;;;1.60;1.50;;;15.70;99.90;;;;;;5053183;28;20236;-40
2021/06/06 00:08:00;;;;;;;1.20;1.10;;;15.60;99.90;;;;;;5052981;28;20579;-40
2021/06/06 00:10:29;;;;;;;1.48;1.38;;;15.60;99.90;;;;;;5053954;28;20609;-40
2021/06/06 00:12:57;;;;;;;1.90;1.55;;;15.50;99.90;;;;;;5053420;28;20617;-40
2021/06/06 00:15:24;;;;;;;1.55;1.45;;;15.50;99.90;;;;;;5053935;28;20220;-42
2021/06/06 00:17:52;;;;;;;1.23;1.13;;;15.50;99.90;;;;;;5053285;28;20212;-40
2021/06/06 00:20:19;;;;;;;1.63;1.40;;;15.50;99.90;;;;;;5053795;28;20299;-40
2021/06/06 00:22:48;;;;;;;1.95;1.50;;;15.50;99.90;;;;;;5053599;28;20218;-40
2021/06/06 00:25:19;;;;;;;1.58;1.48;;;15.40;99.90;;;;;;5053930;28;20212;-40
2021/06/06 00:27:48;;;;;;;1.20;1.10;;;15.40;99.90;;;;;;5052501;28;20214;-40
2021/06/06 00:30:17;;;;;;;1.20;1.10;;;15.50;99.90;;;;;;5052737;28;20251;-41
2021/06/06 00:32:44;;;;;;;1.33;1.23;;;15.50;99.90;;;;;;5052757;28;20204;-40
2021/06/06 00:35:14;;;;;;;2.08;1.50;;;15.50;99.90;;;;;;5052475;28;20270;-40
2021/06/06 00:37:42;;;;;;;1.70;1.60;;;15.50;99.90;;;;;;5052374;28;20228;-41
2021/06/06 00:40:12;;;;;;;1.98;1.10;;;15.40;99.90;;;;;;5052370;28;20299;-40
2021/06/06 00:42:40;;;;;;;2.05;1.38;;;15.40;99.90;;;;;;5052428;28;20299;-40
2021/06/06 00:45:12;;;;;;;1.65;1.55;;;15.40;99.90;;;;;;5052613;28;20212;-41
2021/06/06 00:47:39;;;;;;;1.42;1.33;;;15.50;99.90;;;;;;5052220;28;20295;-40
2021/06/06 00:50:13;;;;;;;1.70;1.60;;;15.50;99.90;;;;;;5052304;28;20244;-40
2021/06/06 00:52:41;;;;;;;2.22;1.73;;;15.50;99.90;;;;;;5052375;28;20236;-41
2021/06/06 00:55:11;;;;;;;1.52;1.42;;;15.50;99.90;;;;;;5052452;28;20254;-42
2021/06/06 00:57:41;;;;;;;1.45;1.35;;;15.40;99.90;;;;;;5051854;28;20335;-40
2021/06/06 01:00:15;;;;;;;1.95;1.70;;;15.40;99.90;;;;;;5052013;28;20210;-40
2021/06/06 01:02:43;;;;;;;1.58;1.48;;;15.40;99.90;;;;;;5052195;28;20299;-40
2021/06/06 01:05:13;;;;;;;1.60;1.50;;;15.50;99.90;;;;;;5051972;28;20398;-41
2021/06/06 01:07:41;;;;;;;1.92;1.67;;;15.50;99.90;;;;;;5052073;28;20738;-40
2021/06/06 01:10:09;;;;;;;1.80;1.60;;;15.50;99.90;;;;;;5052032;28;20215;-40
2021/06/06 01:12:45;;;;;;;3.47;1.77;;;15.50;99.90;;;;;;5055516;28;20254;-39
2021/06/06 01:15:18;;;;;;;2.35;1.88;;;15.40;99.90;;;;;;5051821;28;20683;-41
2021/06/06 01:17:51;;;;;;;2.45;1.85;;;15.50;99.90;;;;;;5051683;28;20278;-41
2021/06/06 01:20:34;;;;;;;2.45;1.98;;;15.50;99.90;;;;;;5051868;28;20204;-39
2021/06/06 01:23:09;;;;;;;1.77;1.67;;;15.50;99.90;;;;;;5051800;28;20211;-39
2021/06/06 01:25:42;;;;;;;2.20;2.10;;;15.50;99.90;;;;;;5051765;28;20214;-40
2021/06/06 01:28:21;;;;;;;2.00;1.90;;;15.50;99.90;;;;;;5051655;28;20212;-39
2021/06/06 01:30:52;;;;;;;2.28;1.65;;;15.50;99.90;;;;;;5051762;28;20213;-42
2021/06/06 01:33:23;;;;;;;2.00;1.45;;;15.50;99.90;;;;;;5051948;28;20295;-41
2021/06/06 01:35:55;;;;;;;2.38;2.17;;;15.40;99.90;;;;;;5051664;28;20218;-41
2021/06/06 01:38:27;;;;;;;2.08;1.88;;;15.40;99.90;;;;;;5051658;28;20298;-41
2021/06/06 01:40:59;;;;;;;1.73;1.63;;;15.40;99.90;;;;;;5051508;28;20250;-41
2021/06/06 01:43:31;;;;;;;2.33;2.08;;;15.40;99.90;;;;;;5051500;28;20295;-40
2021/06/06 01:46:06;;;;;;;2.22;1.95;;;15.40;99.90;;;;;;5051446;28;20238;-41
2021/06/06 01:48:36;;;;;;;1.88;1.77;;;15.40;99.90;;;;;;5051388;28;20207;-40
2021/06/06 01:51:08;;;;;;;1.50;1.40;;;15.40;99.90;;;;;;5051540;28;20655;-40
2021/06/06 01:53:38;;;;;;;2.65;1.80;;;15.40;99.90;;;;;;5051502;28;20230;-42
2021/06/06 01:56:08;;;;;;;1.45;1.35;;;15.40;99.90;;;;;;5051364;28;20230;-41
2021/06/06 01:58:38;;;;;;;2.13;1.92;;;15.40;99.90;;;;;;5051138;28;20226;-41
2021/06/06 02:01:09;;;;;;;1.55;1.45;;;15.40;99.90;;;;;;5051582;28;20212;-41
2021/06/06 02:03:40;;;;;;;1.95;1.85;;;15.30;99.90;;;;;;5051528;28;20284;-40
2021/06/06 02:06:10;;;;;;;1.92;1.70;;;15.40;99.90;;;;;;5051116;28;20634;-40
2021/06/06 02:08:39;;;;;;;1.83;1.73;;;15.40;99.90;;;;;;5051750;28;20208;-40
2021/06/06 02:11:13;;;;;;;1.85;1.75;;;15.30;99.90;;;;;;5055256;28;20398;-40
2021/06/06 02:13:44;;;;;;;2.30;2.10;;;15.30;99.90;;;;;;5055128;28;20241;-40
2021/06/06 02:16:14;;;;;;;2.95;1.90;;;15.30;99.90;;;;;;5055196;28;20214;-40
2021/06/06 02:18:43;;;;;;;1.77;1.67;;;15.40;99.90;;;;;;5055547;28;20576;-40
2021/06/06 02:21:11;;;;;;;2.20;2.00;;;15.40;99.90;;;;;;5055324;28;20517;-40
2021/06/06 02:23:41;;;;;;;2.20;1.67;;;15.40;99.90;;;;;;5055364;28;20235;-40
2021/06/06 02:26:13;;;;;;;2.22;2.03;;;15.30;99.90;;;;;;5055137;28;20670;-39
2021/06/06 02:28:47;;;;;;;1.52;1.42;;;15.30;99.90;;;;;;5055043;28;20219;-40
2021/06/06 02:31:24;;;;;;;2.60;2.28;;;15.20;99.90;;;;;;5055393;28;20261;-40
2021/06/06 02:33:58;;;;;;;2.13;1.98;;;15.30;99.90;;;;;;5054809;28;20299;-40
2021/06/06 02:36:25;;;;;;;2.17;1.95;;;15.20;99.90;;;;;;5054897;28;20214;-41
2021/06/06 02:38:57;;;;;;;1.80;1.70;;;15.20;99.90;;;;;;5054977;28;20675;-41
2021/06/06 02:41:30;;;;;;;1.77;1.67;;;15.20;99.90;;;;;;5055242;28;20196;-40
2021/06/06 02:44:02;;;;;;;1.80;1.70;;;15.20;99.90;;;;;;5055175;28;20212;-41
2021/06/06 02:46:32;;;;;;;1.80;1.70;;;15.20;99.90;;;;;;5054725;28;20212;-41
2021/06/06 02:49:05;;;;;;;3.55;2.10;;;15.20;99.90;;;;;;5054559;28;20303;-40
2021/06/06 02:51:37;;;;;;;2.72;1.63;;;15.20;99.90;;;;;;5054550;28;20356;-40
2021/06/06 02:54:08;;;;;;;2.90;1.38;;;15.20;99.90;;;;;;5054551;28;20208;-42
2021/06/06 02:56:42;;;;;;;1.42;1.33;;;15.20;99.90;;;;;;5054346;28;20689;-41
2021/06/06 02:59:14;;;;;;;2.08;1.38;;;15.20;99.90;;;;;;5054643;28;20303;-39
2021/06/06 03:01:44;;;;;;;2.67;1.42;;;15.10;99.90;;;;;;5054736;28;20227;-41
2021/06/06 03:04:16;;;;;;;1.45;1.35;;;15.10;99.90;;;;;;5054410;28;20262;-42
2021/06/06 03:06:48;;;;;;;1.38;1.17;;;15.10;99.90;;;;;;5054335;28;20330;-41
2021/06/06 03:09:16;;;;;;;1.48;1.38;;;15.10;99.90;;;;;;5054481;28;20254;-40
2021/06/06 03:11:48;;;;;;;1.80;1.70;;;15.00;99.90;;;;;;5054134;28;20214;-40
2021/06/06 03:14:20;;;;;;;2.45;1.30;;;15.00;99.90;;;;;;5054468;28;20227;-44
2021/06/06 03:16:56;;;;;;;1.50;1.10;;;15.00;99.90;;;;;;5054618;28;20244;-41
2021/06/06 03:19:26;;;;;;;1.30;1.20;;;15.00;99.90;;;;;;5054348;28;20215;-41
2021/06/06 03:21:55;;;;;;;1.33;1.23;;;15.00;99.90;;;;;;5053092;28;20675;-42
2021/06/06 03:24:28;;;;;;;1.23;1.13;;;15.00;99.90;;;;;;5054093;28;20204;-40
2021/06/06 03:26:57;;;;;;;1.30;1.20;;;15.00;99.90;;;;;;5054087;28;20218;-40
2021/06/06 03:29:29;;;;;;;1.08;0.98;;;15.00;99.90;;;;;;5054055;28;20204;-40
2021/06/06 03:32:06;;;;;;;1.10;1.00;;;15.00;99.90;;;;;;5054087;28;20215;-40
2021/06/06 03:34:33;;;;;;;1.15;1.10;;;15.00;99.90;;;;;;5054189;28;20315;-40
2021/06/06 03:37:01;;;;;;;1.70;1.08;;;15.00;99.90;;;;;;5053717;28;20618;-41
2021/06/06 03:39:29;;;;;;;1.42;1.30;;;15.00;99.90;;;;;;5053707;28;20302;-41
2021/06/06 03:42:00;;;;;;;1.38;1.10;;;15.00;99.90;;;;;;5054065;28;20208;-39
2021/06/06 03:44:28;;;;;;;1.40;1.30;;;15.00;99.90;;;;;;5054115;28;20212;-41
2021/06/06 03:46:56;;;;;;;0.95;0.95;;;15.00;99.90;;;;;;5053589;28;20238;-40
2021/06/06 03:49:24;;;;;;;0.80;0.80;;;15.00;99.90;;;;;;5053703;28;20250;-41
2021/06/06 03:51:52;;;;;;;2.40;1.17;;;15.00;99.90;;;;;;5053804;28;20204;-40
2021/06/06 03:54:20;;;;;;;1.02;0.93;;;15.00;99.90;;;;;;5053998;28;20302;-41
2021/06/06 03:56:50;;;;;;;0.93;0.93;;;15.00;99.90;;;;;;5053708;28;20215;-40
2021/06/06 03:59:19;;;;;;;1.17;1.08;;;15.10;99.90;;;;;;5053585;28;20231;-45
2021/06/06 04:01:47;;;;;;;2.05;1.02;;;15.10;99.90;;;;;;5053335;28;20207;-42
2021/06/06 04:04:15;;;;;;;0.90;0.90;;;15.00;99.90;;;;;;5053249;28;20258;-41
2021/06/06 04:06:42;;;;;;;1.63;1.08;;;15.00;99.90;;;;;;5052779;28;20745;-41
2021/06/06 04:09:10;;;;;;;1.45;1.30;;;15.00;99.90;;;;;;5053614;28;20208;-41
2021/06/06 04:11:38;;;;;;;1.30;1.02;;;15.00;99.90;;;;;;5053484;28;20219;-41
2021/06/06 04:14:07;;;;;;;1.50;1.40;;;15.00;99.90;;;;;;5053177;28;20298;-40
2021/06/06 04:16:36;;;;;;;1.50;1.25;;;15.00;99.90;;;;;;5053162;28;20208;-39
2021/06/06 04:19:05;;;;;;;2.17;1.20;;;15.00;99.90;;;;;;5053027;28;20270;-41
2021/06/06 04:21:38;;;;;;;1.63;1.52;;;15.00;99.90;;;;;;5053079;28;20560;-41
2021/06/06 04:24:06;;;;;;;1.75;1.65;;;15.00;99.90;;;;;;5053461;28;20306;-43
2021/06/06 04:26:33;;;;;;;1.88;1.77;;;15.00;99.90;;;;;;5053349;28;20211;-41
2021/06/06 04:29:00;;;;;;;1.80;1.67;;;15.00;99.90;;;;;;5052957;28;20214;-39
2021/06/06 04:31:29;;;;;;;1.58;1.42;;;15.00;99.90;;;;;;5052552;28;20589;-39
2021/06/06 04:33:58;;;;;;;2.15;1.95;;;14.90;99.90;;;;;;5053059;28;20212;-40
2021/06/06 04:36:25;;;;;;;2.13;1.92;;;14.90;99.90;;;;;;5052870;28;20546;-39
2021/06/06 04:38:52;;;;;;;2.03;1.60;;;15.00;99.90;;;;;;5053046;28;20227;-42
2021/06/06 04:41:20;;;;;;;1.95;1.80;;;15.00;99.90;;;;;;5052941;28;20346;-39
2021/06/06 04:43:47;;;;;;;1.98;1.75;;;15.00;99.90;;;;;;5052795;28;20385;-41
2021/06/06 04:46:15;;;;;;;2.30;2.10;;;15.00;99.90;;;;;;5052703;28;20215;-42
2021/06/06 04:48:46;;;;;;;1.80;1.70;;;15.00;99.90;;;;;;5052859;28;20208;-40
2021/06/06 04:51:19;;;;;;;3.20;2.15;;;15.00;99.90;;;;;;5052918;28;20204;-42
2021/06/06 04:53:48;;;;;;;2.75;1.80;;;15.10;99.90;;;;;;5052784;28;20211;-40
2021/06/06 04:56:17;;;;;;;2.83;1.92;;;15.10;99.90;;;;;;5052601;28;20208;-39
2021/06/06 04:58:45;;;;;;;3.80;1.80;;;15.10;99.90;;;;;;5052298;28;20224;-40
2021/06/06 05:01:13;;;;;;;1.67;1.52;;;15.10;99.90;;;;;;5052560;28;20207;-42
2021/06/06 05:03:41;;;;;;;1.50;1.40;;;15.20;99.90;;;;;;5052550;28;20627;-39
2021/06/06 05:06:09;;;;;;;2.05;1.85;;;15.20;99.90;;;;;;5052247;28;20231;-41
2021/06/06 05:08:38;;;;;;;1.95;1.80;;;15.20;99.90;;;;;;5052370;28;20208;-44
2021/06/06 05:11:06;;;;;;;1.83;1.73;;;15.20;99.90;;;;;;5052110;28;20212;-40
2021/06/06 05:13:34;;;;;;;1.75;1.65;;;15.20;99.90;;;;;;5052447;28;20203;-41
2021/06/06 05:16:01;;;;;;;2.50;2.13;;;15.20;99.90;;;;;;5052376;28;20303;-38
2021/06/06 05:18:29;;;;;;;2.47;2.28;;;15.20;99.90;;;;;;5052253;28;20319;-42
2021/06/06 05:20:57;;;;;;;2.28;1.92;;;15.20;99.90;;;;;;5052109;28;20663;-41
2021/06/06 05:23:26;;;;;;;2.72;2.47;;;15.30;99.90;;;;;;5052175;28;20605;-41
2021/06/06 05:25:56;;;;;;;2.08;1.98;;;15.30;99.90;;;;;;5051955;28;20239;-41
2021/06/06 05:28:26;;;;;;;2.35;2.15;;;15.30;99.90;;;;;;5052249;28;20254;-42
2021/06/06 05:30:55;;;;;;;2.40;1.90;;;15.30;99.90;;;;;;5052207;28;20209;-41
2021/06/06 05:33:22;;;;;;;3.55;2.30;;;15.30;99.90;;;;;;5052049;28;20290;-40
2021/06/06 05:35:51;;;;;;;2.55;2.20;;;15.30;99.90;;;;;;5052198;28;20208;-39
2021/06/06 05:38:19;;;;;;;3.75;2.55;;;15.30;99.90;;;;;;5051858;28;20314;-41
2021/06/06 05:40:47;;;;;;;2.42;2.30;;;15.40;99.90;;;;;;5052188;28;20215;-40
2021/06/06 05:43:18;;;;;;;5.65;2.95;;;15.30;99.90;;;;;;5051365;28;20307;-43
2021/06/06 05:45:46;;;;;;;3.13;2.67;;;15.40;99.90;;;;;;5052247;28;20307;-41
2021/06/06 05:48:14;;;;;;;3.13;2.83;;;15.40;99.90;;;;;;5051760;28;20627;-41
2021/06/06 05:50:46;;;;;;;5.75;3.50;;;15.40;99.90;;;;;;5051693;28;20314;-39
2021/06/06 05:53:14;;;;;;;4.88;3.42;;;15.40;99.90;;;;;;5051940;28;20302;-40
2021/06/06 05:55:44;;;;;;;3.95;3.55;;;15.40;99.90;;;;;;5051664;28;20219;-40
2021/06/06 05:58:12;;;;;;;6.35;3.80;;;15.40;99.90;;;;;;5051365;28;20330;-40
2021/06/06 06:00:44;;;;;;;4.88;4.20;;;15.40;99.90;;;;;;5051100;28;20256;-43
2021/06/06 06:03:12;;;;;;;3.95;3.55;;;15.40;99.90;;;;;;5050997;28;20219;-44
2021/06/06 06:05:40;;;;;;;4.13;3.67;;;15.40;99.90;;;;;;5051022;28;20374;-41
2021/06/06 06:08:14;;;;;;;4.95;3.85;;;15.40;99.90;;;;;;5051292;28;20231;-40
2021/06/06 06:10:42;;;;;;;4.57;4.18;;;15.40;99.90;;;;;;5051243;28;20365;-40
2021/06/06 06:13:11;;;;;;;6.78;4.10;;;15.40;99.90;;;;;;5051181;28;20212;-40
2021/06/06 06:15:39;;;;;;;3.60;3.30;;;15.40;99.90;;;;;;5050981;28;20207;-41
2021/06/06 06:18:08;;;;;;;5.45;4.88;;;15.50;99.90;;;;;;5051046;28;20238;-40
2021/06/06 06:20:36;;;;;;;4.10;3.63;;;15.50;99.90;;;;;;5051176;28;20295;-40
2021/06/06 06:23:04;;;;;;;5.63;3.50;;;15.50;99.90;;;;;;5051070;28;20693;-42
2021/06/06 06:25:32;;;;;;;4.20;3.63;;;15.50;99.90;;;;;;5051342;28;20239;-40
2021/06/06 06:28:00;;;;;;;4.07;3.70;;;15.50;99.90;;;;;;5051016;28;20298;-40
2021/06/06 06:30:30;;;;;;;4.00;3.55;;;15.50;99.90;;;;;;5050900;28;20236;-40
2021/06/06 06:32:58;;;;;;;4.10;3.70;;;15.50;99.90;;;;;;5051543;28;20222;-42
2021/06/06 06:35:28;;;;;;;5.35;3.72;;;15.60;99.90;;;;;;5051098;28;20208;-39
2021/06/06 06:37:56;;;;;;;4.28;3.78;;;15.70;99.90;;;;;;5050870;28;20270;-40
2021/06/06 06:40:24;;;;;;;3.83;3.53;;;15.70;99.90;;;;;;5051111;28;20215;-42
2021/06/06 06:42:54;;;;;;;6.78;4.03;;;15.80;99.90;;;;;;5050977;28;20291;-39
2021/06/06 06:45:25;;;;;;;3.72;3.42;;;15.90;99.90;;;;;;5050925;28;20295;-41
2021/06/06 06:47:56;;;;;;;4.50;4.10;;;16.00;99.90;;;;;;5051385;28;20211;-40
2021/06/06 06:50:26;;;;;;;5.45;3.85;;;16.10;99.90;;;;;;5051156;28;20227;-40
2021/06/06 06:52:53;;;;;;;4.15;3.67;;;16.10;99.90;;;;;;5050742;28;20307;-41
2021/06/06 06:55:21;;;;;;;5.38;4.35;;;16.10;99.90;;;;;;5052566;28;20215;-39
2021/06/06 06:57:49;;;;;;;9.82;4.72;;;16.10;99.90;;;;;;5054515;28;20208;-43
2021/06/06 07:00:20;;;;;;;4.13;3.67;;;16.10;99.90;;;;;;5054621;28;20307;-40
2021/06/06 07:03:01;;;;;;;3.83;3.47;;;16.20;99.90;;;;;;5054742;28;20400;-41
2021/06/06 07:05:30;;;;;;;4.00;3.60;;;16.30;99.90;;;;;;5054099;28;20243;-42
2021/06/06 07:07:58;;;;;;;4.07;3.78;;;16.20;99.90;;;;;;5054328;28;20303;-40
2021/06/06 07:10:29;;;;;;;4.72;4.03;;;16.20;99.90;;;;;;5054307;28;20215;-41
2021/06/06 07:12:57;;;;;;;4.22;3.88;;;16.10;99.90;;;;;;5055024;28;20258;-40
2021/06/06 07:15:26;;;;;;;4.70;4.30;;;16.10;99.90;;;;;;5054501;28;20298;-41
2021/06/06 07:17:53;;;;;;;5.93;4.78;;;16.10;99.90;;;;;;5054087;28;20208;-41
2021/06/06 07:20:26;;;;;;;4.80;4.30;;;16.10;99.90;;;;;;5053939;28;20360;-40
2021/06/06 07:22:54;;;;;;;4.95;4.55;;;16.20;99.90;;;;;;5054222;28;20218;-41
2021/06/06 07:25:23;;;;;;;4.50;3.88;;;16.20;99.90;;;;;;5054052;28;20307;-40
2021/06/06 07:27:51;;;;;;;4.68;4.28;;;16.30;99.90;;;;;;5053717;28;20231;-39
2021/06/06 07:30:23;;;;;;;4.35;3.67;;;16.30;99.90;;;;;;5053765;28;20236;-40
2021/06/06 07:32:51;;;;;;;5.45;4.95;;;16.30;99.90;;;;;;5053612;28;20303;-42
2021/06/06 07:35:21;;;;;;;4.50;4.10;;;16.30;99.90;;;;;;5053860;28;20472;-42
2021/06/06 07:37:48;;;;;;;4.05;3.75;;;16.30;99.90;;;;;;5053692;28;20208;-40
2021/06/06 07:40:17;;;;;;;3.83;3.53;;;16.40;99.90;;;;;;5053427;28;20322;-41
2021/06/06 07:42:45;;;;;;;3.75;3.15;;;16.40;99.90;;;;;;5053626;28;20659;-41
2021/06/06 07:45:15;;;;;;;3.88;3.40;;;16.40;99.90;;;;;;5053556;28;20208;-41
2021/06/06 07:47:43;;;;;;;3.20;2.90;;;16.40;99.90;;;;;;5053519;28;20532;-39
2021/06/06 07:50:13;;;;;;;3.20;2.97;;;16.40;99.90;;;;;;5053455;28;20295;-40
2021/06/06 07:52:41;;;;;;;3.78;2.72;;;16.40;99.90;;;;;;5053541;28;20216;-39
2021/06/06 07:55:11;;;;;;;2.90;2.70;;;16.50;99.90;;;;;;5053173;28;20684;-39
2021/06/06 07:57:40;;;;;;;3.33;3.10;;;16.50;99.90;;;;;;5053492;28;20226;-41
2021/06/06 08:00:09;;;;;;;3.65;3.35;;;16.50;99.90;;;;;;5053203;28;20399;-41
2021/06/06 08:02:37;;;;;;;3.67;3.38;;;16.50;99.90;;;;;;5053478;28;20259;-40
2021/06/06 08:05:05;;;;;;;3.83;3.42;;;16.50;99.90;;;;;;5053128;28;20308;-40
2021/06/06 08:07:33;;;;;;;3.30;3.08;;;16.50;99.90;;;;;;5052534;28;20299;-39
2021/06/06 08:10:01;;;;;;;4.35;3.25;;;16.50;99.90;;;;;;5053022;28;20204;-40
2021/06/06 08:12:28;;;;;;;3.83;3.53;;;16.60;99.90;;;;;;5053184;28;20294;-40
2021/06/06 08:14:57;;;;;;;3.47;3.17;;;16.60;99.90;;;;;;5053446;28;20208;-42
2021/06/06 08:17:25;;;;;;;3.35;3.05;;;16.70;99.90;;;;;;5053080;28;20373;-41
2021/06/06 08:19:52;;;;;;;3.92;3.53;;;16.80;99.90;;;;;;5053127;28;20234;-43
2021/06/06 08:22:20;;;;;;;3.25;2.97;;;16.80;99.90;;;;;;5052987;28;20235;-41
2021/06/06 08:24:48;;;;;;;2.95;2.75;;;16.90;99.90;;;;;;5052764;28;20208;-42
2021/06/06 08:27:16;;;;;;;4.63;4.18;;;16.90;99.90;;;;;;5052820;28;20310;-40
2021/06/06 08:29:43;;;;;;;3.03;2.83;;;16.90;99.90;;;;;;5052838;28;20210;-41
2021/06/06 08:32:13;;;;;;;3.08;2.83;;;16.90;99.90;;;;;;5052646;28;20262;-41
2021/06/06 08:34:41;;;;;;;3.83;3.50;;;16.90;99.90;;;;;;5052576;28;20215;-41
2021/06/06 08:37:09;;;;;;;2.40;2.20;;;16.90;99.90;;;;;;5052570;28;20307;-40
2021/06/06 08:39:36;;;;;;;2.50;2.30;;;16.90;99.90;;;;;;5052159;28;20228;-40
2021/06/06 08:42:09;;;;;;;2.30;2.20;;;17.00;99.90;;;;;;5052331;28;20208;-40
2021/06/06 08:44:40;;;;;;;3.75;2.78;;;17.00;99.90;;;;;;5052115;28;20679;-40
2021/06/06 08:47:10;;;;;;;2.33;2.10;;;17.00;99.90;;;;;;5052087;28;20207;-40
2021/06/06 08:49:42;;;;;;;2.58;2.38;;;17.00;99.90;;;;;;5051808;28;20742;-41
2021/06/06 08:52:27;;;;;;;3.05;2.78;;;17.10;99.90;;;;;;5051912;28;20279;-41
2021/06/06 08:55:01;;;;;;;2.97;2.75;;;17.10;99.90;;;;;;5051941;28;20286;-39
2021/06/06 08:57:35;;;;;;;3.75;3.45;;;17.10;99.90;;;;;;5051873;28;20229;-41
2021/06/06 09:00:11;;;;;;;2.55;2.35;;;17.10;99.90;;;;;;5051473;28;20220;-41
2021/06/06 09:02:48;;;;;;;2.80;2.55;;;17.10;99.90;;;;;;5051826;28;20631;-41
2021/06/06 09:05:24;;;;;;;2.42;2.22;;;17.00;99.90;;;;;;5051551;28;20629;-39
2021/06/06 09:07:54;;;;;;;2.38;2.25;;;17.00;99.90;;;;;;5051387;28;20214;-40
2021/06/06 09:10:24;;;;;;;5.57;5.15;;;17.00;99.90;;;;;;5051738;28;20310;-41
2021/06/06 09:12:52;;;;;;;3.92;3.63;;;17.00;99.90;;;;;;5051830;28;20200;-39
2021/06/06 09:15:22;;;;;;;2.40;2.28;;;17.10;99.90;;;;;;5051916;28;20219;-40
2021/06/06 09:17:56;;;;;;;5.15;4.65;;;17.10;99.90;;;;;;5051845;28;20693;-41
2021/06/06 09:20:32;;;;;;;2.50;2.25;;;17.20;99.90;;;;;;5051735;28;20803;-40
2021/06/06 09:23:09;;;;;;;2.95;2.75;;;17.20;99.90;;;;;;5051598;28;20242;-40
2021/06/06 09:25:38;;;;;;;2.85;2.63;;;17.20;99.90;;;;;;5051888;28;20303;-42
2021/06/06 09:28:10;;;;;;;2.22;2.03;;;17.30;99.90;;;;;;5051538;28;20212;-41
2021/06/06 09:30:40;;;;;;;2.17;2.00;;;17.20;99.90;;;;;;5051925;28;20286;-42
2021/06/06 09:33:12;;;;;;;3.00;2.80;;;17.20;99.90;;;;;;5051842;28;20302;-40
2021/06/06 09:35:51;;;;;;;2.42;2.20;;;17.20;99.90;;;;;;5051562;28;20204;-40
2021/06/06 09:38:31;;;;;;;2.75;2.55;;;17.20;99.90;;;;;;5052156;28;20302;-41
2021/06/06 09:41:12;;;;;;;2.55;2.35;;;17.20;99.90;;;;;;5052375;28;20290;-40
2021/06/06 09:43:43;;;;;;;2.35;2.15;;;17.10;99.90;;;;;;5052247;28;20595;-40
2021/06/06 09:46:14;;;;;;;2.35;2.22;;;17.10;99.90;;;;;;5051576;28;20204;-40
2021/06/06 09:48:44;;;;;;;2.50;2.30;;;17.00;99.90;;;;;;5052902;28;20369;-41
2021/06/06 09:51:17;;;;;;;2.97;2.30;;;17.00;99.90;;;;;;5051432;28;20211;-41
2021/06/06 09:53:45;;;;;;;2.85;2.65;;;17.00;99.90;;;;;;5053113;28;20291;-41
2021/06/06 09:56:21;;;;;;;2.83;2.63;;;17.00;99.90;;;;;;5051723;28;20307;-42
2021/06/06 09:58:55;;;;;;;3.00;2.80;;;17.00;99.90;;;;;;5050996;28;20215;-40
2021/06/06 10:01:29;;;;;;;7.63;6.93;;;17.00;99.90;;;;;;5051267;28;20258;-40
2021/06/06 10:04:00;;;;;;;3.78;3.47;;;17.10;99.90;;;;;;5051428;28;20303;-41
2021/06/06 10:06:39;;;;;;;3.17;2.88;;;17.10;99.90;;;;;;5051575;28;20277;-39
2021/06/06 10:09:12;;;;;;;3.42;3.20;;;17.10;99.90;;;;;;5051387;28;20255;-40
2021/06/06 10:11:53;;;;;;;4.75;4.15;;;17.10;99.90;;;;;;5051502;28;20247;-41
2021/06/06 10:14:27;;;;;;;3.67;3.33;;;17.10;99.90;;;;;;5051567;28;20715;-42
2021/06/06 10:16:58;;;;;;;2.95;2.75;;;17.10;99.90;;;;;;5051694;28;20231;-41
2021/06/06 10:19:30;;;;;;;3.00;2.80;;;17.10;99.90;;;;;;5051419;28;20232;-40
2021/06/06 10:22:05;;;;;;;3.55;3.25;;;17.20;99.90;;;;;;5051455;28;20663;-41
2021/06/06 10:24:38;;;;;;;2.78;2.58;;;17.20;99.90;;;;;;5051533;28;20636;-41
2021/06/06 10:27:10;;;;;;;2.67;2.47;;;17.20;99.90;;;;;;5051797;28;20231;-41
2021/06/06 10:29:44;;;;;;;3.10;2.90;;;17.30;99.90;;;;;;5052709;28;20249;-40
2021/06/06 10:32:16;;;;;;;2.95;2.75;;;17.30;99.90;;;;;;5055444;28;20302;-40
2021/06/06 10:34:51;;;;;;;2.92;2.72;;;17.30;99.90;;;;;;5055287;28;20247;-41
2021/06/06 10:37:20;;;;;;;3.13;2.92;;;17.40;99.90;;;;;;5055544;28;20217;-41
2021/06/06 10:39:55;;;;;;;3.08;2.60;;;17.40;99.90;;;;;;5054874;28;20228;-41
2021/06/06 10:42:28;;;;;;;2.80;2.60;;;17.40;99.90;;;;;;5054310;28;20302;-41
2021/06/06 10:45:04;;;;;;;2.50;2.38;;;17.50;99.90;;;;;;5054714;28;20298;-41
2021/06/06 10:47:40;;;;;;;3.17;2.88;;;17.60;99.90;;;;;;5054648;28;20208;-40
2021/06/06 10:50:17;;;;;;;3.60;3.30;;;17.60;99.90;;;;;;5054454;28;20290;-42
2021/06/06 10:52:45;;;;;;;2.67;2.47;;;17.70;99.90;;;;;;5054175;28;20666;-42
2021/06/06 10:55:27;;;;;;;2.50;2.30;;;17.80;99.90;;;;;;5054301;28;20634;-42
2021/06/06 10:57:55;;;;;;;2.95;2.75;;;17.80;99.90;;;;;;5054674;28;20295;-42
2021/06/06 11:00:31;;;;;;;3.00;2.67;;;17.90;99.90;;;;;;5054233;28;20235;-41
2021/06/06 11:03:03;;;;;;;2.53;2.33;;;18.00;99.90;;;;;;5054706;28;20302;-43
2021/06/06 11:05:48;;;;;;;3.83;3.42;;;18.00;99.90;;;;;;5054375;28;21287;-41
2021/06/06 11:08:20;;;;;;;2.65;2.45;;;18.00;99.90;;;;;;5054815;28;20287;-41
2021/06/06 11:10:51;;;;;;;3.15;2.60;;;18.00;99.90;;;;;;5054716;28;20204;-43
2021/06/06 11:13:33;;;;;;;3.08;2.78;;;18.00;99.90;;;;;;5054665;28;20546;-41
2021/06/06 11:16:04;;;;;;;2.60;2.40;;;18.00;99.90;;;;;;5054805;28;20196;-42
2021/06/06 11:18:46;;;;;;;2.58;2.38;;;18.10;99.90;;;;;;5054705;28;20633;-43
2021/06/06 11:21:14;;;;;;;2.85;2.65;;;18.10;99.90;;;;;;5054304;28;20263;-41
2021/06/06 11:23:56;;;;;;;3.10;2.90;;;18.10;99.90;;;;;;5054659;28;20219;-41
2021/06/06 11:26:35;;;;;;;2.80;2.60;;;18.20;99.90;;;;;;5054618;28;20223;-42
2021/06/06 11:29:10;;;;;;;2.33;2.13;;;18.30;99.90;;;;;;5054290;28;20251;-41
2021/06/06 11:31:57;;;;;;;3.25;3.03;;;18.50;99.90;;;;;;5054590;28;20715;-41
2021/06/06 11:34:29;;;;;;;4.07;3.75;;;18.60;99.90;;;;;;5053876;28;20270;-41
2021/06/06 11:37:10;;;;;;;3.20;2.90;;;18.80;99.90;;;;;;5054054;28;20240;-41
2021/06/06 11:39:41;;;;;;;3.10;2.90;;;19.00;99.90;;;;;;5053846;28;20327;-42
2021/06/06 11:42:19;;;;;;;2.83;2.60;;;19.10;99.90;;;;;;5052595;28;20300;-41
2021/06/06 11:44:50;;;;;;;4.03;3.72;;;19.30;99.90;;;;;;5053581;28;20665;-42
2021/06/06 11:47:24;;;;;;;2.92;2.72;;;19.40;99.90;;;;;;5053671;28;20215;-41
2021/06/06 11:49:56;;;;;;;3.30;3.08;;;19.40;99.90;;;;;;5053712;28;20208;-41
2021/06/06 11:52:29;;;;;;;2.80;2.60;;;19.50;99.90;;;;;;5053423;28;20258;-41
2021/06/06 11:55:00;;;;;;;2.80;2.60;;;19.50;99.90;;;;;;5053552;28;20576;-41
2021/06/06 11:57:30;;;;;;;3.45;3.15;;;19.60;99.90;;;;;;5053370;28;20295;-41
2021/06/06 12:00:03;;;;;;;4.28;3.92;;;19.60;99.90;;;;;;5053332;28;20228;-41
2021/06/06 12:02:32;;;;;;;2.97;2.78;;;19.60;99.90;;;;;;5053281;28;20643;-41
2021/06/06 12:05:12;;;;;;;2.65;2.45;;;19.80;99.90;;;;;;5052772;28;20679;-41
2021/06/06 12:07:43;;;;;;;2.70;2.50;;;19.90;99.90;;;;;;5053077;28;20302;-41
2021/06/06 12:10:24;;;;;;;3.05;2.85;;;20.00;99.90;;;;;;5053285;28;20294;-41
2021/06/06 12:12:56;;;;;;;3.55;3.25;;;20.10;99.90;;;;;;5053076;28;20301;-41
2021/06/06 12:15:28;;;;;;;2.97;2.78;;;20.10;99.90;;;;;;5052697;28;20218;-41
2021/06/06 12:18:09;;;;;;;3.17;2.97;;;20.10;99.90;;;;;;5052642;28;20212;-42
2021/06/06 12:20:49;;;;;;;3.15;2.85;;;20.00;99.90;;;;;;5052948;28;20235;-42
2021/06/06 12:23:17;;;;;;;4.43;3.88;;;20.00;99.90;;;;;;5052755;28;20728;-42
2021/06/06 12:25:46;;;;;;;4.40;4.00;;;19.90;99.90;;;;;;5052387;28;20223;-42
2021/06/06 12:28:18;;;;;;;5.32;4.82;;;19.90;99.90;;;;;;5054320;28;20216;-42
2021/06/06 12:30:54;;;;;;;3.97;3.58;;;19.80;99.90;;;;;;5052405;28;20266;-42
2021/06/06 12:33:30;;;;;;;4.13;3.83;;;19.80;99.90;;;;;;5052381;28;20265;-44
2021/06/06 12:36:02;;;;;;;5.03;4.25;;;19.60;99.90;;;;;;5052541;28;20295;-42
2021/06/06 12:38:30;;;;;;;4.53;3.95;;;19.60;99.90;;;;;;5052377;28;20307;-41
2021/06/06 12:41:02;;;;;;;4.65;4.32;;;19.50;99.90;;;;;;5052400;28;20228;-41
2021/06/06 12:43:31;;;;;;;3.85;3.55;;;19.50;99.90;;;;;;5052287;28;20735;-42
2021/06/06 12:46:04;;;;;;;5.18;4.78;;;19.40;99.90;;;;;;5052634;28;20234;-42
2021/06/06 12:48:35;;;;;;;5.85;5.10;;;19.50;99.90;;;;;;5052279;28;20208;-44
2021/06/06 12:51:15;;;;;;;3.10;2.80;;;19.50;99.90;;;;;;5052265;28;20200;-44
2021/06/06 12:53:44;;;;;;;4.00;3.60;;;19.60;99.90;;;;;;5051795;28;20235;-45
2021/06/06 12:56:18;;;;;;;3.85;3.55;;;19.70;99.90;;;;;;5052410;28;20378;-43
2021/06/06 12:58:46;;;;;;;3.83;3.50;;;19.80;99.90;;;;;;5052124;28;20671;-44
2021/06/06 13:01:25;;;;;;;3.92;3.50;;;19.80;99.90;;;;;;5052105;28;20266;-45
2021/06/06 13:03:54;;;;;;;3.40;3.10;;;19.80;99.90;;;;;;5051913;28;20762;-45
2021/06/06 13:06:37;;;;;;;3.92;3.63;;;19.80;99.90;;;;;;5051735;28;20293;-44